sensor_id;sensor_type;location;lat;lon;timestamp;P1;durP1;ratioP1;P2;durP2;ratioP2
61675;SDS011;47574;52.090;5.244;2022-08-21T00:01:27;10.6;;;5.6;;
61675;SDS011;47574;52.090;5.244;2022-08-21T00:03:08;7.6;;;5.2;;
61675;SDS011;47574;52.090;5.244;2022-08-21T00:04:45;7.8;;;5.2;;
61675;SDS011;47574;52.090;5.244;2022-08-21T00:06:23;9.71;;;5.9;;
61675;SDS011;47574;52.090;5.244;2022-08-21T00:09:39;8.1;;;5.11;;
61675;SDS011;47574;52.090;5.244;2022-08-21T00:11:16;7.9;;;4.8;;
61675;SDS011;47574;52.090;5.244;2022-08-21T00:12:54;7.2;;;5.3;;
61675;SDS011;47574;52.090;5.244;2022-08-21T00:14:31;7.9;;;5.3;;
61675;SDS011;47574;52.090;5.244;2022-08-21T00:17:45;7.9;;;5.2;;
61675;SDS011;47574;52.090;5.244;2022-08-21T00:19:24;6.1;;;5.0;;
61675;SDS011;47574;52.090;5.244;2022-08-21T00:21:02;8.1;;;4.91;;
61675;SDS011;47574;52.090;5.244;2022-08-21T00:24:17;8.71;;;5.2;;
61675;SDS011;47574;52.090;5.244;2022-08-21T00:25:54;9.21;;;5.2;;
61675;SDS011;47574;52.090;5.244;2022-08-21T00:27:31;6.0;;;4.8;;
61675;SDS011;47574;52.090;5.244;2022-08-21T00:30:43;7.2;;;5.2;;
61675;SDS011;47574;52.090;5.244;2022-08-21T00:32:20;6.9;;;5.3;;
61675;SDS011;47574;52.090;5.244;2022-08-21T00:33:59;8.81;;;5.4;;
61675;SDS011;47574;52.090;5.244;2022-08-21T00:35:38;6.9;;;5.7;;
61675;SDS011;47574;52.090;5.244;2022-08-21T00:38:54;6.9;;;5.4;;
61675;SDS011;47574;52.090;5.244;2022-08-21T00:40:34;7.9;;;5.7;;
61675;SDS011;47574;52.090;5.244;2022-08-21T00:42:14;9.71;;;5.7;;
61675;SDS011;47574;52.090;5.244;2022-08-21T00:43:52;9.9;;;5.2;;
61675;SDS011;47574;52.090;5.244;2022-08-21T00:47:09;5.4;;;4.91;;
61675;SDS011;47574;52.090;5.244;2022-08-21T00:48:46;6.7;;;6.0;;
61675;SDS011;47574;52.090;5.244;2022-08-21T00:50:23;9.31;;;5.8;;
61675;SDS011;47574;52.090;5.244;2022-08-21T00:53:46;8.81;;;5.5;;
61675;SDS011;47574;52.090;5.244;2022-08-21T00:55:22;7.7;;;5.2;;
61675;SDS011;47574;52.090;5.244;2022-08-21T00:57:02;5.9;;;5.3;;
61675;SDS011;47574;52.090;5.244;2022-08-21T00:58:46;8.0;;;4.91;;
61675;SDS011;47574;52.090;5.244;2022-08-21T01:02:06;7.6;;;5.0;;
61675;SDS011;47574;52.090;5.244;2022-08-21T01:03:45;8.9;;;5.7;;
61675;SDS011;47574;52.090;5.244;2022-08-21T01:05:22;6.5;;;4.7;;
61675;SDS011;47574;52.090;5.244;2022-08-21T01:07:00;10.0;;;5.6;;
61675;SDS011;47574;52.090;5.244;2022-08-21T01:10:14;8.2;;;5.2;;
61675;SDS011;47574;52.090;5.244;2022-08-21T01:11:52;6.8;;;4.7;;
61675;SDS011;47574;52.090;5.244;2022-08-21T01:13:31;10.3;;;5.4;;
61675;SDS011;47574;52.090;5.244;2022-08-21T01:16:50;9.21;;;5.5;;
61675;SDS011;47574;52.090;5.244;2022-08-21T01:18:30;6.9;;;5.2;;
61675;SDS011;47574;52.090;5.244;2022-08-21T01:20:08;7.4;;;5.7;;
61675;SDS011;47574;52.090;5.244;2022-08-21T01:21:47;5.7;;;5.0;;
61675;SDS011;47574;52.090;5.244;2022-08-21T01:25:01;7.0;;;5.4;;
61675;SDS011;47574;52.090;5.244;2022-08-21T01:26:41;7.4;;;5.4;;
61675;SDS011;47574;52.090;5.244;2022-08-21T01:28:19;7.4;;;5.3;;
61675;SDS011;47574;52.090;5.244;2022-08-21T01:30:01;7.1;;;5.6;;
61675;SDS011;47574;52.090;5.244;2022-08-21T01:33:22;7.6;;;5.3;;
61675;SDS011;47574;52.090;5.244;2022-08-21T01:35:00;9.21;;;5.9;;
61675;SDS011;47574;52.090;5.244;2022-08-21T01:36:39;9.81;;;5.9;;
61675;SDS011;47574;52.090;5.244;2022-08-21T01:38:16;9.21;;;5.8;;
61675;SDS011;47574;52.090;5.244;2022-08-21T01:41:29;7.2;;;5.0;;
61675;SDS011;47574;52.090;5.244;2022-08-21T01:43:06;4.91;;;4.3;;
61675;SDS011;47574;52.090;5.244;2022-08-21T01:44:42;7.6;;;4.41;;
61675;SDS011;47574;52.090;5.244;2022-08-21T01:47:56;7.7;;;5.11;;
61675;SDS011;47574;52.090;5.244;2022-08-21T01:49:32;9.31;;;5.4;;
61675;SDS011;47574;52.090;5.244;2022-08-21T01:51:09;7.3;;;4.91;;
61675;SDS011;47574;52.090;5.244;2022-08-21T01:54:24;6.5;;;4.7;;
61675;SDS011;47574;52.090;5.244;2022-08-21T01:56:03;8.0;;;5.2;;
61675;SDS011;47574;52.090;5.244;2022-08-21T01:57:42;7.3;;;5.5;;
61675;SDS011;47574;52.090;5.244;2022-08-21T01:59:19;7.4;;;5.5;;
61675;SDS011;47574;52.090;5.244;2022-08-21T02:02:34;6.8;;;4.8;;
61675;SDS011;47574;52.090;5.244;2022-08-21T02:04:10;6.6;;;5.2;;
61675;SDS011;47574;52.090;5.244;2022-08-21T02:05:48;8.4;;;5.9;;
61675;SDS011;47574;52.090;5.244;2022-08-21T02:09:01;6.4;;;4.91;;
61675;SDS011;47574;52.090;5.244;2022-08-21T02:10:41;7.1;;;5.3;;
61675;SDS011;47574;52.090;5.244;2022-08-21T02:12:17;6.3;;;4.91;;
61675;SDS011;47574;52.090;5.244;2022-08-21T02:13:53;7.6;;;5.3;;
61675;SDS011;47574;52.090;5.244;2022-08-21T02:17:07;7.6;;;5.3;;
61675;SDS011;47574;52.090;5.244;2022-08-21T02:18:43;7.4;;;5.11;;
61675;SDS011;47574;52.090;5.244;2022-08-21T02:20:20;6.7;;;5.3;;
61675;SDS011;47574;52.090;5.244;2022-08-21T02:23:39;8.2;;;5.5;;
61675;SDS011;47574;52.090;5.244;2022-08-21T02:25:16;6.4;;;5.11;;
61675;SDS011;47574;52.090;5.244;2022-08-21T02:26:54;7.0;;;5.4;;
61675;SDS011;47574;52.090;5.244;2022-08-21T02:28:30;5.9;;;5.0;;
61675;SDS011;47574;52.090;5.244;2022-08-21T02:31:47;7.5;;;5.2;;
61675;SDS011;47574;52.090;5.244;2022-08-21T02:33:23;8.71;;;5.5;;
61675;SDS011;47574;52.090;5.244;2022-08-21T02:35:02;7.8;;;5.6;;
61675;SDS011;47574;52.090;5.244;2022-08-21T02:38:21;6.5;;;5.11;;
61675;SDS011;47574;52.090;5.244;2022-08-21T02:39:59;9.5;;;5.6;;
61675;SDS011;47574;52.090;5.244;2022-08-21T02:41:36;6.8;;;5.3;;
61675;SDS011;47574;52.090;5.244;2022-08-21T02:43:13;8.4;;;5.3;;
61675;SDS011;47574;52.090;5.244;2022-08-21T02:46:27;8.0;;;5.8;;
61675;SDS011;47574;52.090;5.244;2022-08-21T02:48:05;7.2;;;5.5;;
61675;SDS011;47574;52.090;5.244;2022-08-21T02:49:44;6.5;;;5.2;;
61675;SDS011;47574;52.090;5.244;2022-08-21T02:52:58;10.0;;;5.7;;
61675;SDS011;47574;52.090;5.244;2022-08-21T02:54:36;9.5;;;6.0;;
61675;SDS011;47574;52.090;5.244;2022-08-21T02:56:13;7.0;;;5.4;;
61675;SDS011;47574;52.090;5.244;2022-08-21T02:57:55;8.1;;;5.8;;
61675;SDS011;47574;52.090;5.244;2022-08-21T03:01:10;8.1;;;5.7;;
61675;SDS011;47574;52.090;5.244;2022-08-21T03:02:48;6.1;;;5.3;;
61675;SDS011;47574;52.090;5.244;2022-08-21T03:04:25;7.7;;;5.9;;
61675;SDS011;47574;52.090;5.244;2022-08-21T03:06:03;7.6;;;6.0;;
61675;SDS011;47574;52.090;5.244;2022-08-21T03:09:19;7.1;;;5.5;;
61675;SDS011;47574;52.090;5.244;2022-08-21T03:10:55;8.2;;;5.9;;
61675;SDS011;47574;52.090;5.244;2022-08-21T03:12:32;7.1;;;5.5;;
61675;SDS011;47574;52.090;5.244;2022-08-21T03:15:46;7.9;;;5.4;;
61675;SDS011;47574;52.090;5.244;2022-08-21T03:17:23;6.9;;;5.3;;
61675;SDS011;47574;52.090;5.244;2022-08-21T03:19:00;8.71;;;5.4;;
61675;SDS011;47574;52.090;5.244;2022-08-21T03:22:17;7.0;;;5.7;;
61675;SDS011;47574;52.090;5.244;2022-08-21T03:23:54;9.0;;;6.0;;
61675;SDS011;47574;52.090;5.244;2022-08-21T03:25:32;8.6;;;6.1;;
61675;SDS011;47574;52.090;5.244;2022-08-21T03:27:12;9.0;;;6.2;;
61675;SDS011;47574;52.090;5.244;2022-08-21T03:30:27;8.6;;;6.0;;
61675;SDS011;47574;52.090;5.244;2022-08-21T03:32:04;9.21;;;6.1;;
61675;SDS011;47574;52.090;5.244;2022-08-21T03:33:41;7.2;;;5.5;;
61675;SDS011;47574;52.090;5.244;2022-08-21T03:36:56;6.6;;;5.4;;
61675;SDS011;47574;52.090;5.244;2022-08-21T03:38:33;8.31;;;6.1;;
61675;SDS011;47574;52.090;5.244;2022-08-21T03:40:11;10.0;;;5.6;;
61675;SDS011;47574;52.090;5.244;2022-08-21T03:41:52;5.7;;;4.91;;
61675;SDS011;47574;52.090;5.244;2022-08-21T03:45:07;6.9;;;5.2;;
61675;SDS011;47574;52.090;5.244;2022-08-21T03:46:45;7.5;;;4.8;;
61675;SDS011;47574;52.090;5.244;2022-08-21T03:48:21;5.3;;;4.61;;
61675;SDS011;47574;52.090;5.244;2022-08-21T03:49:59;6.3;;;5.0;;
61675;SDS011;47574;52.090;5.244;2022-08-21T03:53:14;6.8;;;5.11;;
61675;SDS011;47574;52.090;5.244;2022-08-21T03:54:51;6.5;;;5.2;;
61675;SDS011;47574;52.090;5.244;2022-08-21T03:56:28;8.1;;;5.0;;
61675;SDS011;47574;52.090;5.244;2022-08-21T03:59:43;6.4;;;4.7;;
61675;SDS011;47574;52.090;5.244;2022-08-21T04:01:20;7.8;;;5.11;;
61675;SDS011;47574;52.090;5.244;2022-08-21T04:02:56;6.7;;;4.7;;
61675;SDS011;47574;52.090;5.244;2022-08-21T04:06:10;6.8;;;5.11;;
61675;SDS011;47574;52.090;5.244;2022-08-21T04:07:46;8.5;;;5.2;;
61675;SDS011;47574;52.090;5.244;2022-08-21T04:09:24;5.6;;;5.0;;
61675;SDS011;47574;52.090;5.244;2022-08-21T04:11:02;6.3;;;5.11;;
61675;SDS011;47574;52.090;5.244;2022-08-21T04:14:15;7.6;;;5.4;;
61675;SDS011;47574;52.090;5.244;2022-08-21T04:15:53;6.6;;;4.91;;
61675;SDS011;47574;52.090;5.244;2022-08-21T04:17:30;6.8;;;5.11;;
61675;SDS011;47574;52.090;5.244;2022-08-21T04:20:44;6.6;;;4.8;;
61675;SDS011;47574;52.090;5.244;2022-08-21T04:22:24;6.1;;;5.2;;
61675;SDS011;47574;52.090;5.244;2022-08-21T04:24:00;7.1;;;5.0;;
61675;SDS011;47574;52.090;5.244;2022-08-21T04:25:36;9.71;;;5.6;;
61675;SDS011;47574;52.090;5.244;2022-08-21T04:28:49;7.6;;;5.8;;
61675;SDS011;47574;52.090;5.244;2022-08-21T04:30:25;8.4;;;5.9;;
61675;SDS011;47574;52.090;5.244;2022-08-21T04:32:03;6.8;;;5.4;;
61675;SDS011;47574;52.090;5.244;2022-08-21T04:35:17;9.5;;;5.8;;
61675;SDS011;47574;52.090;5.244;2022-08-21T04:36:56;9.21;;;6.0;;
61675;SDS011;47574;52.090;5.244;2022-08-21T04:38:32;8.81;;;6.1;;
61675;SDS011;47574;52.090;5.244;2022-08-21T04:41:49;8.6;;;5.9;;
61675;SDS011;47574;52.090;5.244;2022-08-21T04:43:25;6.7;;;5.5;;
61675;SDS011;47574;52.090;5.244;2022-08-21T04:45:01;9.5;;;5.9;;
61675;SDS011;47574;52.090;5.244;2022-08-21T04:46:38;8.31;;;5.6;;
61675;SDS011;47574;52.090;5.244;2022-08-21T04:49:55;8.0;;;5.9;;
61675;SDS011;47574;52.090;5.244;2022-08-21T04:51:32;8.2;;;6.0;;
61675;SDS011;47574;52.090;5.244;2022-08-21T04:53:13;7.8;;;6.0;;
61675;SDS011;47574;52.090;5.244;2022-08-21T04:54:54;10.1;;;6.4;;
61675;SDS011;47574;52.090;5.244;2022-08-21T04:58:17;10.9;;;6.4;;
61675;SDS011;47574;52.090;5.244;2022-08-21T04:59:56;9.4;;;6.4;;
61675;SDS011;47574;52.090;5.244;2022-08-21T05:01:33;9.5;;;6.8;;
61675;SDS011;47574;52.090;5.244;2022-08-21T05:04:53;9.1;;;6.3;;
61675;SDS011;47574;52.090;5.244;2022-08-21T05:06:31;8.4;;;6.5;;
61675;SDS011;47574;52.090;5.244;2022-08-21T05:08:12;10.6;;;7.1;;
61675;SDS011;47574;52.090;5.244;2022-08-21T05:09:54;11.4;;;7.0;;
61675;SDS011;47574;52.090;5.244;2022-08-21T05:13:10;9.9;;;7.4;;
61675;SDS011;47574;52.090;5.244;2022-08-21T05:14:48;9.4;;;7.1;;
61675;SDS011;47574;52.090;5.244;2022-08-21T05:16:25;10.4;;;7.0;;
61675;SDS011;47574;52.090;5.244;2022-08-21T05:18:03;10.9;;;6.9;;
61675;SDS011;47574;52.090;5.244;2022-08-21T05:21:16;11.3;;;7.1;;
61675;SDS011;47574;52.090;5.244;2022-08-21T05:22:52;10.0;;;6.5;;
61675;SDS011;47574;52.090;5.244;2022-08-21T05:24:30;11.2;;;7.1;;
61675;SDS011;47574;52.090;5.244;2022-08-21T05:27:43;12.4;;;6.8;;
61675;SDS011;47574;52.090;5.244;2022-08-21T05:29:20;9.5;;;7.2;;
61675;SDS011;47574;52.090;5.244;2022-08-21T05:30:56;11.0;;;7.1;;
61675;SDS011;47574;52.090;5.244;2022-08-21T05:32:34;10.1;;;6.9;;
61675;SDS011;47574;52.090;5.244;2022-08-21T05:35:49;13.4;;;7.2;;
61675;SDS011;47574;52.090;5.244;2022-08-21T05:37:27;10.21;;;6.7;;
61675;SDS011;47574;52.090;5.244;2022-08-21T05:39:03;10.0;;;6.7;;
61675;SDS011;47574;52.090;5.244;2022-08-21T05:42:16;10.0;;;6.7;;
61675;SDS011;47574;52.090;5.244;2022-08-21T05:43:53;11.3;;;7.3;;
61675;SDS011;47574;52.090;5.244;2022-08-21T05:45:30;10.3;;;7.0;;
61675;SDS011;47574;52.090;5.244;2022-08-21T05:48:46;11.4;;;6.9;;
61675;SDS011;47574;52.090;5.244;2022-08-21T05:50:22;12.3;;;7.2;;
61675;SDS011;47574;52.090;5.244;2022-08-21T05:52:00;14.0;;;7.6;;
61675;SDS011;47574;52.090;5.244;2022-08-21T05:53:37;12.4;;;7.3;;
61675;SDS011;47574;52.090;5.244;2022-08-21T05:56:51;9.1;;;6.5;;
61675;SDS011;47574;52.090;5.244;2022-08-21T05:58:27;10.3;;;6.5;;
61675;SDS011;47574;52.090;5.244;2022-08-21T06:00:04;11.8;;;7.1;;
61675;SDS011;47574;52.090;5.244;2022-08-21T06:03:20;11.0;;;7.3;;
61675;SDS011;47574;52.090;5.244;2022-08-21T06:05:00;12.0;;;7.4;;
61675;SDS011;47574;52.090;5.244;2022-08-21T06:06:37;11.3;;;7.2;;
61675;SDS011;47574;52.090;5.244;2022-08-21T06:08:14;10.5;;;7.2;;
61675;SDS011;47574;52.090;5.244;2022-08-21T06:11:26;10.8;;;7.2;;
61675;SDS011;47574;52.090;5.244;2022-08-21T06:13:04;12.3;;;7.0;;
61675;SDS011;47574;52.090;5.244;2022-08-21T06:14:41;14.7;;;7.2;;
61675;SDS011;47574;52.090;5.244;2022-08-21T06:17:54;13.4;;;6.8;;
61675;SDS011;47574;52.090;5.244;2022-08-21T06:19:31;15.0;;;7.3;;
61675;SDS011;47574;52.090;5.244;2022-08-21T06:21:09;11.8;;;6.8;;
61675;SDS011;47574;52.090;5.244;2022-08-21T06:22:46;11.8;;;6.8;;
61675;SDS011;47574;52.090;5.244;2022-08-21T06:25:59;12.0;;;6.9;;
61675;SDS011;47574;52.090;5.244;2022-08-21T06:27:36;11.2;;;6.6;;
61675;SDS011;47574;52.090;5.244;2022-08-21T06:29:16;11.8;;;6.5;;
61675;SDS011;47574;52.090;5.244;2022-08-21T06:32:30;10.21;;;6.4;;
61675;SDS011;47574;52.090;5.244;2022-08-21T06:34:07;12.1;;;6.6;;
61675;SDS011;47574;52.090;5.244;2022-08-21T06:35:44;11.5;;;6.4;;
61675;SDS011;47574;52.090;5.244;2022-08-21T06:38:58;10.6;;;6.5;;
61675;SDS011;47574;52.090;5.244;2022-08-21T06:40:34;12.0;;;6.6;;
61675;SDS011;47574;52.090;5.244;2022-08-21T06:42:12;17.0;;;7.0;;
61675;SDS011;47574;52.090;5.244;2022-08-21T06:43:50;11.4;;;6.1;;
61675;SDS011;47574;52.090;5.244;2022-08-21T06:47:04;12.2;;;6.1;;
61675;SDS011;47574;52.090;5.244;2022-08-21T06:48:41;11.2;;;6.4;;
61675;SDS011;47574;52.090;5.244;2022-08-21T06:50:17;12.8;;;6.6;;
61675;SDS011;47574;52.090;5.244;2022-08-21T06:53:31;13.4;;;6.8;;
61675;SDS011;47574;52.090;5.244;2022-08-21T06:55:12;12.0;;;6.4;;
61675;SDS011;47574;52.090;5.244;2022-08-21T06:56:48;13.7;;;6.0;;
61675;SDS011;47574;52.090;5.244;2022-08-21T06:58:26;13.2;;;6.3;;
61675;SDS011;47574;52.090;5.244;2022-08-21T07:01:43;11.8;;;6.1;;
61675;SDS011;47574;52.090;5.244;2022-08-21T07:03:21;11.3;;;5.8;;
61675;SDS011;47574;52.090;5.244;2022-08-21T07:05:00;11.5;;;6.2;;
61675;SDS011;47574;52.090;5.244;2022-08-21T07:08:15;12.9;;;6.2;;
61675;SDS011;47574;52.090;5.244;2022-08-21T07:09:52;15.7;;;6.3;;
61675;SDS011;47574;52.090;5.244;2022-08-21T07:11:28;13.0;;;6.1;;
61675;SDS011;47574;52.090;5.244;2022-08-21T07:13:05;12.3;;;5.9;;
61675;SDS011;47574;52.090;5.244;2022-08-21T07:16:18;16.3;;;6.1;;
61675;SDS011;47574;52.090;5.244;2022-08-21T07:17:57;12.5;;;5.6;;
61675;SDS011;47574;52.090;5.244;2022-08-21T07:19:34;14.5;;;6.7;;
61675;SDS011;47574;52.090;5.244;2022-08-21T07:22:47;15.2;;;6.1;;
61675;SDS011;47574;52.090;5.244;2022-08-21T07:24:23;9.71;;;5.11;;
61675;SDS011;47574;52.090;5.244;2022-08-21T07:26:00;10.9;;;5.7;;
61675;SDS011;47574;52.090;5.244;2022-08-21T07:27:36;13.1;;;5.5;;
61675;SDS011;47574;52.090;5.244;2022-08-21T07:30:50;14.5;;;5.8;;
61675;SDS011;47574;52.090;5.244;2022-08-21T07:32:29;12.2;;;5.7;;
61675;SDS011;47574;52.090;5.244;2022-08-21T07:34:06;13.4;;;5.4;;
61675;SDS011;47574;52.090;5.244;2022-08-21T07:37:20;13.6;;;5.2;;
61675;SDS011;47574;52.090;5.244;2022-08-21T07:38:58;12.4;;;5.8;;
61675;SDS011;47574;52.090;5.244;2022-08-21T07:40:35;14.5;;;6.1;;
61675;SDS011;47574;52.090;5.244;2022-08-21T07:43:47;14.6;;;6.0;;
61675;SDS011;47574;52.090;5.244;2022-08-21T07:45:24;14.4;;;5.8;;
61675;SDS011;47574;52.090;5.244;2022-08-21T07:47:02;11.9;;;5.5;;
61675;SDS011;47574;52.090;5.244;2022-08-21T07:48:39;12.6;;;5.6;;
61675;SDS011;47574;52.090;5.244;2022-08-21T07:51:54;13.6;;;5.7;;
61675;SDS011;47574;52.090;5.244;2022-08-21T07:53:30;14.1;;;6.2;;
61675;SDS011;47574;52.090;5.244;2022-08-21T07:55:08;13.7;;;6.2;;
61675;SDS011;47574;52.090;5.244;2022-08-21T07:58:23;12.5;;;5.5;;
61675;SDS011;47574;52.090;5.244;2022-08-21T08:00:00;15.9;;;5.6;;
61675;SDS011;47574;52.090;5.244;2022-08-21T08:01:36;11.8;;;5.3;;
61675;SDS011;47574;52.090;5.244;2022-08-21T08:03:12;12.4;;;5.2;;
61675;SDS011;47574;52.090;5.244;2022-08-21T08:06:26;11.2;;;5.7;;
61675;SDS011;47574;52.090;5.244;2022-08-21T08:08:04;11.1;;;5.11;;
61675;SDS011;47574;52.090;5.244;2022-08-21T08:09:41;16.0;;;6.0;;
61675;SDS011;47574;52.090;5.244;2022-08-21T08:12:54;11.3;;;5.4;;
61675;SDS011;47574;52.090;5.244;2022-08-21T08:14:32;14.4;;;5.5;;
61675;SDS011;47574;52.090;5.244;2022-08-21T08:16:08;14.2;;;5.6;;
61675;SDS011;47574;52.090;5.244;2022-08-21T08:21:01;11.5;;;5.0;;
61675;SDS011;47574;52.090;5.244;2022-08-21T08:22:38;15.0;;;5.7;;
61675;SDS011;47574;52.090;5.244;2022-08-21T08:24:16;12.8;;;5.5;;
61675;SDS011;47574;52.090;5.244;2022-08-21T08:27:30;13.7;;;5.3;;
61675;SDS011;47574;52.090;5.244;2022-08-21T08:29:07;13.2;;;5.4;;
61675;SDS011;47574;52.090;5.244;2022-08-21T08:30:44;13.2;;;5.4;;
61675;SDS011;47574;52.090;5.244;2022-08-21T08:33:59;13.5;;;4.8;;
61675;SDS011;47574;52.090;5.244;2022-08-21T08:35:36;11.1;;;5.6;;
61675;SDS011;47574;52.090;5.244;2022-08-21T08:37:12;13.1;;;5.6;;
61675;SDS011;47574;52.090;5.244;2022-08-21T08:38:48;12.7;;;5.4;;
61675;SDS011;47574;52.090;5.244;2022-08-21T08:42:20;12.2;;;5.0;;
61675;SDS011;47574;52.090;5.244;2022-08-21T08:44:05;16.3;;;5.11;;
61675;SDS011;47574;52.090;5.244;2022-08-21T08:45:45;15.8;;;5.3;;
61675;SDS011;47574;52.090;5.244;2022-08-21T08:47:26;13.1;;;4.7;;
61675;SDS011;47574;52.090;5.244;2022-08-21T08:50:54;12.9;;;5.3;;
61675;SDS011;47574;52.090;5.244;2022-08-21T08:52:33;14.1;;;4.8;;
61675;SDS011;47574;52.090;5.244;2022-08-21T08:54:15;14.5;;;4.41;;
61675;SDS011;47574;52.090;5.244;2022-08-21T08:55:57;12.2;;;4.7;;
61675;SDS011;47574;52.090;5.244;2022-08-21T08:57:37;12.4;;;4.41;;
61675;SDS011;47574;52.090;5.244;2022-08-21T09:01:05;11.0;;;4.3;;
61675;SDS011;47574;52.090;5.244;2022-08-21T09:02:51;14.3;;;4.41;;
61675;SDS011;47574;52.090;5.244;2022-08-21T09:04:31;12.5;;;4.5;;
61675;SDS011;47574;52.090;5.244;2022-08-21T09:06:10;10.3;;;4.0;;
61675;SDS011;47574;52.090;5.244;2022-08-21T09:08:13;10.8;;;4.0;;
61675;SDS011;47574;52.090;5.244;2022-08-21T09:10:11;11.6;;;4.1;;
61675;SDS011;47574;52.090;5.244;2022-08-21T09:13:43;12.8;;;4.0;;
61675;SDS011;47574;52.090;5.244;2022-08-21T09:15:29;11.8;;;4.1;;
61675;SDS011;47574;52.090;5.244;2022-08-21T09:17:14;10.21;;;4.0;;
61675;SDS011;47574;52.090;5.244;2022-08-21T09:19:18;9.31;;;3.7;;
61675;SDS011;47574;52.090;5.244;2022-08-21T09:21:15;9.1;;;3.7;;
61675;SDS011;47574;52.090;5.244;2022-08-21T09:23:04;9.21;;;3.7;;
61675;SDS011;47574;52.090;5.244;2022-08-21T09:24:59;10.3;;;3.5;;
61675;SDS011;47574;52.090;5.244;2022-08-21T09:28:33;10.3;;;4.0;;
61675;SDS011;47574;52.090;5.244;2022-08-21T09:30:12;11.5;;;3.3;;
61675;SDS011;47574;52.090;5.244;2022-08-21T09:31:49;9.1;;;2.9;;
61675;SDS011;47574;52.090;5.244;2022-08-21T09:33:26;12.5;;;3.9;;
61675;SDS011;47574;52.090;5.244;2022-08-21T09:36:47;9.21;;;3.5;;
61675;SDS011;47574;52.090;5.244;2022-08-21T09:38:28;11.5;;;3.3;;
61675;SDS011;47574;52.090;5.244;2022-08-21T09:40:15;10.6;;;3.2;;
61675;SDS011;47574;52.090;5.244;2022-08-21T09:42:06;11.3;;;3.8;;
61675;SDS011;47574;52.090;5.244;2022-08-21T09:43:51;10.4;;;3.4;;
61675;SDS011;47574;52.090;5.244;2022-08-21T09:47:08;10.21;;;3.5;;
61675;SDS011;47574;52.090;5.244;2022-08-21T09:48:46;9.81;;;3.0;;
61675;SDS011;47574;52.090;5.244;2022-08-21T09:50:27;7.7;;;2.8;;
61675;SDS011;47574;52.090;5.244;2022-08-21T09:52:06;10.6;;;3.0;;
61675;SDS011;47574;52.090;5.244;2022-08-21T09:58:43;8.71;;;2.8;;
61675;SDS011;47574;52.090;5.244;2022-08-21T10:00:26;10.1;;;2.8;;
61675;SDS011;47574;52.090;5.244;2022-08-21T10:04:03;8.2;;;2.5;;
61675;SDS011;47574;52.090;5.244;2022-08-21T10:05:50;9.4;;;3.0;;
61675;SDS011;47574;52.090;5.244;2022-08-21T10:07:31;8.4;;;2.7;;
61675;SDS011;47574;52.090;5.244;2022-08-21T10:09:12;11.4;;;3.4;;
61675;SDS011;47574;52.090;5.244;2022-08-21T10:10:54;9.81;;;2.7;;
61675;SDS011;47574;52.090;5.244;2022-08-21T10:14:34;9.21;;;2.7;;
61675;SDS011;47574;52.090;5.244;2022-08-21T10:16:35;8.31;;;2.6;;
61675;SDS011;47574;52.090;5.244;2022-08-21T10:18:30;11.2;;;2.8;;
61675;SDS011;47574;52.090;5.244;2022-08-21T10:20:16;9.0;;;2.7;;
61675;SDS011;47574;52.090;5.244;2022-08-21T10:22:00;6.7;;;2.4;;
61675;SDS011;47574;52.090;5.244;2022-08-21T10:23:52;10.8;;;2.5;;
61675;SDS011;47574;52.090;5.244;2022-08-21T10:25:38;6.7;;;2.21;;
61675;SDS011;47574;52.090;5.244;2022-08-21T10:29:18;7.9;;;2.4;;
61675;SDS011;47574;52.090;5.244;2022-08-21T10:31:18;7.4;;;2.31;;
61675;SDS011;47574;52.090;5.244;2022-08-21T10:33:12;7.0;;;2.4;;
61675;SDS011;47574;52.090;5.244;2022-08-21T10:35:00;9.31;;;2.9;;
61675;SDS011;47574;52.090;5.244;2022-08-21T10:36:47;5.11;;;1.7;;
61675;SDS011;47574;52.090;5.244;2022-08-21T10:38:53;10.8;;;2.4;;
61675;SDS011;47574;52.090;5.244;2022-08-21T10:40:34;6.3;;;2.5;;
61675;SDS011;47574;52.090;5.244;2022-08-21T10:42:21;7.2;;;2.1;;
61675;SDS011;47574;52.090;5.244;2022-08-21T10:46:02;6.2;;;1.9;;
61675;SDS011;47574;52.090;5.244;2022-08-21T10:47:54;6.2;;;2.21;;
61675;SDS011;47574;52.090;5.244;2022-08-21T10:49:38;6.8;;;2.0;;
61675;SDS011;47574;52.090;5.244;2022-08-21T10:51:23;7.4;;;2.0;;
61675;SDS011;47574;52.090;5.244;2022-08-21T10:53:15;7.2;;;2.1;;
61675;SDS011;47574;52.090;5.244;2022-08-21T10:55:06;7.3;;;1.9;;
61675;SDS011;47574;52.090;5.244;2022-08-21T10:56:48;6.5;;;2.31;;
61675;SDS011;47574;52.090;5.244;2022-08-21T11:00:17;7.7;;;1.9;;
61675;SDS011;47574;52.090;5.244;2022-08-21T11:01:59;5.8;;;2.21;;
61675;SDS011;47574;52.090;5.244;2022-08-21T11:03:44;5.4;;;1.7;;
61675;SDS011;47574;52.090;5.244;2022-08-21T11:05:28;8.31;;;2.0;;
61675;SDS011;47574;52.090;5.244;2022-08-21T11:08:57;8.4;;;2.1;;
61675;SDS011;47574;52.090;5.244;2022-08-21T11:10:47;5.5;;;1.7;;
61675;SDS011;47574;52.090;5.244;2022-08-21T11:12:30;7.0;;;1.7;;
61675;SDS011;47574;52.090;5.244;2022-08-21T11:14:20;7.0;;;1.8;;
61675;SDS011;47574;52.090;5.244;2022-08-21T11:16:07;6.5;;;2.31;;
61675;SDS011;47574;52.090;5.244;2022-08-21T11:17:58;5.6;;;2.21;;
61675;SDS011;47574;52.090;5.244;2022-08-21T11:19:56;6.7;;;1.9;;
61675;SDS011;47574;52.090;5.244;2022-08-21T11:23:31;5.11;;;1.7;;
61675;SDS011;47574;52.090;5.244;2022-08-21T11:25:19;5.6;;;1.9;;
61675;SDS011;47574;52.090;5.244;2022-08-21T11:27:03;7.2;;;1.8;;
61675;SDS011;47574;52.090;5.244;2022-08-21T11:28:55;3.8;;;1.8;;
61675;SDS011;47574;52.090;5.244;2022-08-21T11:30:43;5.9;;;1.8;;
61675;SDS011;47574;52.090;5.244;2022-08-21T11:32:39;5.4;;;2.0;;
61675;SDS011;47574;52.090;5.244;2022-08-21T11:34:44;6.3;;;1.8;;
61675;SDS011;47574;52.090;5.244;2022-08-21T11:38:21;6.2;;;1.8;;
61675;SDS011;47574;52.090;5.244;2022-08-21T11:40:10;6.0;;;2.0;;
61675;SDS011;47574;52.090;5.244;2022-08-21T11:42:02;5.9;;;2.0;;
61675;SDS011;47574;52.090;5.244;2022-08-21T11:43:48;7.2;;;2.21;;
61675;SDS011;47574;52.090;5.244;2022-08-21T11:45:36;5.7;;;1.9;;
61675;SDS011;47574;52.090;5.244;2022-08-21T11:47:29;6.2;;;2.21;;
61675;SDS011;47574;52.090;5.244;2022-08-21T11:49:29;5.7;;;2.1;;
61675;SDS011;47574;52.090;5.244;2022-08-21T11:51:25;7.7;;;2.6;;
61675;SDS011;47574;52.090;5.244;2022-08-21T11:53:17;6.4;;;2.4;;
61675;SDS011;47574;52.090;5.244;2022-08-21T11:56:52;6.5;;;2.31;;
61675;SDS011;47574;52.090;5.244;2022-08-21T11:58:35;7.2;;;2.21;;
61675;SDS011;47574;52.090;5.244;2022-08-21T12:00:16;7.2;;;2.21;;
61675;SDS011;47574;52.090;5.244;2022-08-21T12:01:58;7.8;;;2.1;;
61675;SDS011;47574;52.090;5.244;2022-08-21T12:05:25;6.3;;;2.1;;
61675;SDS011;47574;52.090;5.244;2022-08-21T12:07:10;7.1;;;2.5;;
61675;SDS011;47574;52.090;5.244;2022-08-21T12:08:56;6.8;;;1.9;;
61675;SDS011;47574;52.090;5.244;2022-08-21T12:10:36;5.0;;;1.7;;
61675;SDS011;47574;52.090;5.244;2022-08-21T12:12:23;7.1;;;1.9;;
61675;SDS011;47574;52.090;5.244;2022-08-21T12:15:51;5.8;;;2.0;;
61675;SDS011;47574;52.090;5.244;2022-08-21T12:17:34;5.3;;;1.7;;
61675;SDS011;47574;52.090;5.244;2022-08-21T12:19:27;6.6;;;2.1;;
61675;SDS011;47574;52.090;5.244;2022-08-21T12:21:22;8.6;;;1.9;;
61675;SDS011;47574;52.090;5.244;2022-08-21T12:23:03;6.6;;;1.9;;
61675;SDS011;47574;52.090;5.244;2022-08-21T12:25:05;6.1;;;1.8;;
61675;SDS011;47574;52.090;5.244;2022-08-21T12:26:48;6.8;;;1.9;;
61675;SDS011;47574;52.090;5.244;2022-08-21T12:30:20;7.1;;;1.7;;
61675;SDS011;47574;52.090;5.244;2022-08-21T12:32:19;5.4;;;1.8;;
61675;SDS011;47574;52.090;5.244;2022-08-21T12:34:01;5.2;;;1.8;;
61675;SDS011;47574;52.090;5.244;2022-08-21T12:35:46;7.2;;;1.7;;
61675;SDS011;47574;52.090;5.244;2022-08-21T12:37:25;4.3;;;1.4;;
61675;SDS011;47574;52.090;5.244;2022-08-21T12:41:05;4.0;;;1.8;;
61675;SDS011;47574;52.090;5.244;2022-08-21T12:42:50;7.6;;;1.9;;
61675;SDS011;47574;52.090;5.244;2022-08-21T12:44:33;4.8;;;1.8;;
61675;SDS011;47574;52.090;5.244;2022-08-21T12:46:15;6.1;;;1.8;;
61675;SDS011;47574;52.090;5.244;2022-08-21T12:47:55;5.2;;;1.7;;
61675;SDS011;47574;52.090;5.244;2022-08-21T12:51:28;5.3;;;1.8;;
61675;SDS011;47574;52.090;5.244;2022-08-21T12:53:11;5.11;;;1.7;;
61675;SDS011;47574;52.090;5.244;2022-08-21T12:54:59;7.2;;;1.8;;
61675;SDS011;47574;52.090;5.244;2022-08-21T12:56:39;6.4;;;1.6;;
61675;SDS011;47574;52.090;5.244;2022-08-21T12:58:17;4.3;;;1.7;;